Bookmark and Share
Track history (hours):
 

Adventuress (United States)

Ship's website: http://www.soundexp.org/

More information available from US FCC via Universal Licensing System and Coast Guard Vessel Documentation Center.

Last reported at 2014-Apr-20 23:33 UTC. Time now 2014-Apr-20 23:43 UTC.
Position N 47°17' W 122°27'.

Length 43 m.

Type: Passenger vessel. MMSI: 367323180.

NotesDate/timePositionNaut miles runAvg speedWind from/ knotsBaromVisibWave heightAir tempDewpointWater temp
2014-Apr-20 23:33N 47°17' W 122°27'1 0.6
2014-Apr-20 22:30N 47°16' W 122°27'1 0.6
2014-Apr-20 21:06N 47°16' W 122°26'0 0.0
2014-Apr-20 20:33N 47°16' W 122°26'0 0.0
2014-Apr-20 19:33N 47°16' W 122°26'0 0.0
2014-Apr-20 18:27N 47°16' W 122°26'0 0.0
2014-Apr-20 13:03N 47°16' W 122°26'0 0.0
2014-Apr-20 04:31N 47°16' W 122°26'0 0.0
2014-Apr-20 03:04N 47°16' W 122°26'0 0.0
2014-Apr-20 02:29N 47°16' W 122°26'0 0.0
2014-Apr-20 01:33N 47°16' W 122°26'1 0.6
2014-Apr-20 00:33N 47°16' W 122°27'2 2.2
2014-Apr-19 23:34N 47°18' W 122°29'2 2.3
2014-Apr-19 22:33N 47°16' W 122°26'1 0.1
2014-Apr-19 18:30N 47°16' W 122°26'0 0.0
2014-Apr-19 17:30N 47°16' W 122°26'0 0.0
2014-Apr-19 16:33N 47°16' W 122°26'0 0.0
2014-Apr-19 15:30N 47°16' W 122°26'0 0.0
2014-Apr-19 14:33N 47°16' W 122°26'0 0.0
2014-Apr-19 13:30N 47°16' W 122°26'0 0.0
2014-Apr-18 05:24N 47°16' W 122°26'0 0.0
2014-Apr-18 04:12N 47°16' W 122°26'0 0.0
2014-Apr-18 03:18N 47°16' W 122°26'0 0.0
2014-Apr-17 20:24N 47°16' W 122°26'0 0.0
2014-Apr-17 19:30N 47°16' W 122°26'0 0.0
2014-Apr-17 18:33N 47°16' W 122°26'0 0.1
2014-Apr-17 17:26N 47°15' W 122°26'0 0.2
2014-Apr-17 16:33N 47°16' W 122°26'0 0.0
2014-Apr-17 15:33N 47°16' W 122°26'0 0.0
2014-Apr-17 14:24N 47°16' W 122°26'0 0.0
2014-Apr-17 11:12N 47°16' W 122°26'0 0.0
2014-Apr-17 10:30N 47°16' W 122°26'0 0.0
2014-Apr-17 09:33N 47°16' W 122°26'0 0.0
2014-Apr-17 08:30N 47°16' W 122°26'0 0.0
2014-Apr-17 07:27N 47°16' W 122°26'0 0.0
2014-Apr-17 06:33N 47°16' W 122°26'0 0.0
2014-Apr-17 05:30N 47°16' W 122°26'0 0.0
2014-Apr-17 04:18N 47°16' W 122°26'0 0.0
2014-Apr-17 03:30N 47°16' W 122°26'0 0.0
2014-Apr-17 00:30N 47°16' W 122°26'0 0.0
2014-Apr-16 23:33N 47°16' W 122°26'1 0.6
2014-Apr-16 22:33N 47°16' W 122°26'4 4.3
2014-Apr-16 21:33N 47°20' W 122°25'7 6.6
2014-Apr-16 20:33N 47°27' W 122°23'5 6.8
2014-Apr-16 19:48N 47°32' W 122°25'2 6.3
2014-Apr-16 19:33N 47°33' W 122°25'0 0.0
2014-Apr-16 19:33N 47°33' W 122°25'6 5.7
2014-Apr-16 18:33N 47°39' W 122°27'0 4.5
2014-Apr-16 18:33N 47°39' W 122°27'3 2.9
2014-Apr-16 17:33N 47°41' W 122°29'0 2.4
2014-Apr-16 17:33N 47°41' W 122°29'2 1.9
2014-Apr-16 16:33N 47°43' W 122°30'0 2.4
2014-Apr-16 16:33N 47°43' W 122°30'2 1.8
2014-Apr-16 15:33N 47°44' W 122°33'0 0.0
2014-Apr-16 15:18N 47°44' W 122°33'0 0.0
2014-Apr-16 14:33N 47°44' W 122°33'0 0.0
2014-Apr-16 13:27N 47°44' W 122°33'0 0.0
2014-Apr-16 12:33N 47°44' W 122°33'0 0.0
2014-Apr-16 11:33N 47°44' W 122°33'0 0.0
2014-Apr-16 10:27N 47°44' W 122°33'0 0.0
2014-Apr-16 10:18N 47°44' W 122°33'0 0.0
2014-Apr-16 09:33N 47°44' W 122°33'0 0.0
2014-Apr-16 09:33N 47°44' W 122°33'0 0.0
2014-Apr-16 08:33N 47°44' W 122°33'0 0.0
2014-Apr-16 07:33N 47°44' W 122°33'0 0.0
2014-Apr-16 06:33N 47°44' W 122°33'0 0.0
2014-Apr-16 05:33N 47°44' W 122°33'0 0.0
2014-Apr-16 04:30N 47°44' W 122°33'0 0.0
2014-Apr-16 03:33N 47°44' W 122°33'0 0.0
2014-Apr-16 02:33N 47°44' W 122°33'0 0.0
2014-Apr-16 02:33N 47°44' W 122°33'0 0.0
2014-Apr-16 01:27N 47°44' W 122°33'0 0.0
2014-Apr-16 00:33N 47°44' W 122°33'0 0.0
2014-Apr-16 00:17N 47°44' W 122°33'0 0.0
2014-Apr-15 23:33N 47°44' W 122°33'0 0.0
2014-Apr-15 23:32N 47°44' W 122°33'0 0.1
2014-Apr-15 22:33N 47°44' W 122°33'0 0.3
2014-Apr-15 22:32N 47°44' W 122°33'3 3.3
2014-Apr-15 21:33N 47°44' W 122°28'0 2.7
2014-Apr-15 21:32N 47°44' W 122°28'3 3.1
2014-Apr-15 20:33N 47°44' W 122°32'0 0.0
2014-Apr-15 20:32N 47°44' W 122°32'0 0.3
2014-Apr-15 19:33N 47°44' W 122°33'0 0.0
2014-Apr-15 19:32N 47°44' W 122°33'0 0.3
2014-Apr-15 18:33N 47°44' W 122°32'0 0.3
2014-Apr-15 18:32N 47°44' W 122°32'1 0.6
2014-Apr-15 17:33N 47°44' W 122°32'0 3.8
2014-Apr-15 17:32N 47°44' W 122°32'0 0.4
2014-Apr-15 16:33N 47°44' W 122°32'0 3.3
2014-Apr-15 16:32N 47°44' W 122°32'0 0.3
2014-Apr-15 15:32N 47°44' W 122°33'0 0.0
2014-Apr-15 14:32N 47°44' W 122°33'0 0.0
2014-Apr-15 12:32N 47°44' W 122°33'0 0.0
2014-Apr-15 11:32N 47°44' W 122°33'0 0.0
2014-Apr-15 11:02N 47°44' W 122°33'0 0.0
2014-Apr-15 10:32N 47°44' W 122°33'0 0.0
2014-Apr-15 10:31N 47°44' W 122°33'0 0.0
2014-Apr-15 09:32N 47°44' W 122°33'0 0.0
2014-Apr-15 09:17N 47°44' W 122°33'0 0.0
2014-Apr-15 08:32N 47°44' W 122°33'0 0.0
2014-Apr-15 07:26N 47°44' W 122°33'0 0.0
2014-Apr-15 06:32N 47°44' W 122°33'0 0.0
2014-Apr-15 06:26N 47°44' W 122°33'0 0.0
2014-Apr-15 05:32N 47°44' W 122°33'0 0.0
2014-Apr-15 04:21N 47°44' W 122°33'0 0.0
2014-Apr-15 01:33N 47°44' W 122°33'0 0.0
2014-Apr-15 01:30N 47°44' W 122°33'0 0.0
2014-Apr-15 00:33N 47°44' W 122°33'0 0.0
2014-Apr-15 00:31N 47°44' W 122°33'0 0.0
2014-Apr-14 23:34N 47°44' W 122°33'0 0.0
2014-Apr-14 23:26N 47°44' W 122°33'0 0.0
2014-Apr-14 22:34N 47°44' W 122°33'0 0.0
2014-Apr-14 22:31N 47°44' W 122°33'0 0.0
2014-Apr-14 21:34N 47°44' W 122°33'0 0.0
2014-Apr-14 21:31N 47°44' W 122°33'0 0.0
2014-Apr-14 20:34N 47°44' W 122°33'0 0.0
2014-Apr-14 20:31N 47°44' W 122°33'0 0.0
2014-Apr-14 19:34N 47°44' W 122°33'0 0.0
2014-Apr-14 19:25N 47°44' W 122°33'0 0.0
2014-Apr-14 18:33N 47°44' W 122°33'0 2.6
2014-Apr-14 18:31N 47°44' W 122°33'0 0.0
2014-Apr-14 17:33N 47°44' W 122°33'0 2.3
2014-Apr-14 17:31N 47°44' W 122°33'0 0.0
2014-Apr-14 16:34N 47°44' W 122°33'1 0.9
2014-Apr-14 15:33N 47°44' W 122°32'1 0.9
2014-Apr-14 14:32N 47°44' W 122°33'0 0.0
2014-Apr-14 14:05N 47°44' W 122°33'0 0.0
2014-Apr-14 13:32N 47°44' W 122°33'0 0.0
2014-Apr-14 12:50N 47°44' W 122°33'0 0.0
2014-Apr-14 12:05N 47°44' W 122°33'0 0.0
2014-Apr-14 11:20N 47°44' W 122°33'0 0.0
2014-Apr-14 10:32N 47°44' W 122°33'0 0.0
2014-Apr-14 10:20N 47°44' W 122°33'0 0.0
2014-Apr-14 09:32N 47°44' W 122°33'0 0.0
2014-Apr-14 09:20N 47°44' W 122°33'0 0.0
2014-Apr-14 08:32N 47°44' W 122°33'0 0.0
2014-Apr-14 08:20N 47°44' W 122°33'0 0.0
2014-Apr-14 07:32N 47°44' W 122°33'0 0.0
2014-Apr-14 07:20N 47°44' W 122°33'0 0.0
2014-Apr-14 06:32N 47°44' W 122°33'0 0.0
2014-Apr-14 05:35N 47°44' W 122°33'0 0.0
2014-Apr-14 05:32N 47°44' W 122°33'0 0.0
2014-Apr-14 04:29N 47°44' W 122°33'0 0.0
2014-Apr-14 03:30N 47°44' W 122°33'0 0.0
2014-Apr-14 02:28N 47°44' W 122°33'0 0.0
2014-Apr-14 01:28N 47°44' W 122°33'2 0.8
2014-Apr-13 22:33N 47°44' W 122°29'5 5.0
2014-Apr-13 21:33N 47°49' W 122°28'8 7.5
2014-Apr-13 20:32N 47°56' W 122°33'3 0.1
2014-Apr-12 21:10N 47°54' W 122°37'  

Dump ship's entire track history

sailing weather and tide predictions

Adventuress — WCX8691 — position and weather